Terminal Aerodrome Forecast
Issued by NWS

Home | Current Version | Previous Version | Text Only | Print | Product List | Glossary On
Versions: 1 2 3 4 5 6 7 8 9 10 11 12 13 14 15 16 17 18 19
000
FTUS43 KSGF 012300
TAFJLN
TAF
KJLN 012320Z 0200/0224 18012KT P6SM VCTS SCT025 BKN050CB
      TEMPO 0201/0205 2SM +TSRA BR BKN025CB
     FM020500 17009KT 5SM -TSRA BR BKN040CB OVC070
      TEMPO 0205/0209 2SM +TSRA BR FEW007 BKN025CB
     FM021300 21007KT P6SM SCT015 BKN070=

USA.gov is the U.S. government's official web portal to all federal, state and local government web resources and services.